Time;durP1;ratioP1;P1;durP2;ratioP2;P2;SDS_P1;SDS_P2;PMS_P1;PMS_P2;Temp;Humidity;BMP_temperature;BMP_pressure;BME280_temperature;BME280_humidity;BME280_pressure;Samples;Min_cycle;Max_cycle;Signal;HPM_P1;HPM_P2
2022/08/01 00:00:20;;;;;;;4.50;4.10;;;18.80;99.90;;;;;;5031982;28;20491;-74
2022/08/01 00:02:46;;;;;;;4.68;3.83;;;19.00;99.90;;;;;;5032616;28;20037;-74
2022/08/01 00:05:12;;;;;;;5.10;4.40;;;19.00;99.90;;;;;;5018600;28;20030;-75
2022/08/01 00:07:38;;;;;;;6.25;4.07;;;18.70;99.90;;;;;;5021015;28;20108;-73
2022/08/01 00:10:07;;;;;;;5.05;4.15;;;18.60;99.90;;;;;;5001972;28;20026;-73
2022/08/01 00:12:32;;;;;;;4.45;4.05;;;18.90;99.90;;;;;;5032830;28;20506;-73
2022/08/01 00:14:58;;;;;;;4.35;3.95;;;18.90;99.90;;;;;;5019624;28;20092;-75
2022/08/01 00:17:24;;;;;;;4.28;3.88;;;18.90;99.90;;;;;;5024900;28;20060;-76
2022/08/01 00:19:49;;;;;;;6.93;4.30;;;18.90;99.90;;;;;;5008696;28;20121;-76
2022/08/01 00:22:15;;;;;;;5.13;4.20;;;19.20;99.90;;;;;;5020956;28;20475;-75
2022/08/01 00:24:40;;;;;;;5.22;4.30;;;19.40;99.90;;;;;;5031252;28;20022;-75
2022/08/01 00:27:06;;;;;;;5.85;3.78;;;19.40;99.90;;;;;;5003565;28;20087;-75
2022/08/01 00:29:31;;;;;;;4.63;3.85;;;19.40;99.90;;;;;;5013490;28;20029;-75
2022/08/01 00:31:57;;;;;;;4.50;4.10;;;19.40;99.90;;;;;;5003067;28;20056;-75
2022/08/01 00:34:23;;;;;;;4.72;4.32;;;19.30;99.90;;;;;;5019801;28;20053;-75
2022/08/01 00:36:48;;;;;;;5.28;4.13;;;18.80;99.90;;;;;;5032615;28;20025;-75
2022/08/01 00:39:14;;;;;;;6.57;4.25;;;18.70;99.90;;;;;;5019267;28;20084;-75
2022/08/01 00:41:39;;;;;;;4.85;4.38;;;18.40;99.90;;;;;;5024645;28;20476;-75
2022/08/01 00:44:05;;;;;;;4.80;4.30;;;18.50;99.90;;;;;;5008337;28;20032;-76
2022/08/01 00:46:32;;;;;;;6.28;4.22;;;18.20;99.90;;;;;;5020243;28;20029;-75
2022/08/01 00:48:58;;;;;;;5.60;4.60;;;18.40;99.90;;;;;;5001186;28;20105;-75
2022/08/01 00:51:26;;;;;;;4.43;4.05;;;18.50;99.90;;;;;;5024452;28;20030;-75
2022/08/01 00:53:52;;;;;;;6.43;4.40;;;18.60;99.90;;;;;;5027163;28;20033;-75
2022/08/01 00:56:20;;;;;;;6.10;4.30;;;18.50;99.90;;;;;;5014526;28;20021;-75
2022/08/01 00:58:46;;;;;;;5.10;4.55;;;18.40;99.90;;;;;;5012748;28;20060;-75
2022/08/01 01:01:12;;;;;;;4.85;4.35;;;18.40;99.90;;;;;;5020585;28;20072;-75
2022/08/01 01:03:37;;;;;;;6.13;4.68;;;18.30;99.90;;;;;;5018794;28;20407;-76
2022/08/01 01:06:24;;;;;;;5.50;4.60;;;18.20;99.90;;;;;;5014461;28;20073;-75
2022/08/01 01:09:03;;;;;;;5.70;4.63;;;18.10;99.90;;;;;;5018595;28;20029;-75
2022/08/01 01:11:36;;;;;;;6.28;5.18;;;18.00;99.90;;;;;;5018918;28;20487;-75
2022/08/01 01:14:09;;;;;;;5.18;4.72;;;18.00;99.90;;;;;;5019507;28;20021;-75
2022/08/01 01:16:40;;;;;;;5.55;4.80;;;18.00;99.90;;;;;;5018863;28;20021;-75
2022/08/01 01:19:13;;;;;;;5.65;4.93;;;18.20;99.90;;;;;;5005493;28;20065;-75
2022/08/01 01:21:41;;;;;;;5.57;4.60;;;18.40;99.90;;;;;;5025299;28;20034;-77
2022/08/01 01:24:30;;;;;;;5.00;4.60;;;18.40;99.90;;;;;;5022180;28;20416;-77
2022/08/01 01:27:05;;;;;;;7.63;4.32;;;18.40;99.90;;;;;;5018651;28;20104;-76
2022/08/01 01:29:38;;;;;;;6.65;4.95;;;18.60;99.90;;;;;;5018425;28;20065;-75
2022/08/01 01:32:21;;;;;;;5.32;4.70;;;18.30;99.90;;;;;;5022808;28;20029;-75
2022/08/01 01:34:51;;;;;;;4.95;4.47;;;18.20;99.90;;;;;;5029658;28;20022;-75
2022/08/01 01:37:20;;;;;;;5.70;5.20;;;18.30;99.90;;;;;;5020079;28;20026;-75
2022/08/01 01:40:08;;;;;;;6.97;5.03;;;18.20;99.90;;;;;;5017283;28;20018;-76
2022/08/01 01:42:35;;;;;;;7.20;4.85;;;18.40;99.90;;;;;;5018265;28;20018;-76
2022/08/01 01:45:04;;;;;;;5.43;4.40;;;18.30;99.90;;;;;;5005421;28;20114;-76
2022/08/01 01:47:32;;;;;;;4.55;4.15;;;18.50;99.90;;;;;;5009865;28;20434;-76
2022/08/01 01:49:59;;;;;;;5.82;5.13;;;18.70;99.90;;;;;;5004282;28;20480;-75
2022/08/01 01:52:27;;;;;;;6.40;5.32;;;18.70;99.90;;;;;;5025071;28;20666;-75
2022/08/01 01:54:55;;;;;;;5.57;4.70;;;18.60;99.90;;;;;;5021606;28;20471;-76
2022/08/01 01:57:22;;;;;;;5.78;4.55;;;18.50;99.90;;;;;;5014668;28;20511;-75
2022/08/01 01:59:50;;;;;;;5.10;4.07;;;18.60;99.90;;;;;;5004359;28;20151;-75
2022/08/01 02:02:18;;;;;;;5.40;4.90;;;18.60;99.90;;;;;;5018086;28;20061;-75
2022/08/01 02:04:46;;;;;;;6.50;5.03;;;18.50;99.90;;;;;;5002668;28;20030;-75
2022/08/01 02:07:24;;;;;;;6.28;5.70;;;18.10;99.90;;;;;;5029610;28;20026;-75
2022/08/01 02:09:52;;;;;;;6.25;5.65;;;17.90;99.90;;;;;;5018210;28;20563;-75
2022/08/01 02:12:21;;;;;;;7.38;5.70;;;17.60;99.90;;;;;;5018493;28;20022;-75
2022/08/01 02:14:48;;;;;;;5.60;5.03;;;17.50;99.90;;;;;;5018013;28;20021;-76
2022/08/01 02:17:18;;;;;;;6.47;5.38;;;17.70;99.90;;;;;;5024228;28;20040;-76
2022/08/01 02:19:44;;;;;;;5.15;4.60;;;18.00;99.90;;;;;;5025018;28;20040;-76
2022/08/01 02:22:21;;;;;;;5.70;4.70;;;18.10;99.90;;;;;;5019073;28;20395;-75
2022/08/01 02:24:50;;;;;;;7.55;4.85;;;18.10;99.90;;;;;;5021255;28;20162;-75
2022/08/01 02:27:39;;;;;;;6.55;4.90;;;18.20;99.90;;;;;;5025596;28;20425;-75
2022/08/01 02:30:08;;;;;;;5.32;4.82;;;18.30;99.90;;;;;;5028464;28;20096;-76
2022/08/01 02:32:41;;;;;;;5.38;4.65;;;18.30;99.90;;;;;;5027978;28;20021;-76
2022/08/01 02:35:28;;;;;;;5.10;4.70;;;18.30;99.90;;;;;;5034961;28;20060;-76
2022/08/01 02:37:56;;;;;;;5.28;4.88;;;18.30;99.90;;;;;;5021401;28;20029;-75
2022/08/01 02:40:23;;;;;;;5.47;5.03;;;18.10;99.90;;;;;;5024196;28;20022;-75
2022/08/01 02:42:51;;;;;;;5.97;4.82;;;18.10;99.90;;;;;;5032096;28;20030;-74
2022/08/01 02:45:24;;;;;;;7.70;5.05;;;18.10;99.90;;;;;;5005789;28;20080;-74
2022/08/01 02:47:53;;;;;;;6.25;5.65;;;18.10;99.90;;;;;;5010469;28;20072;-75
2022/08/01 02:50:20;;;;;;;6.20;5.60;;;17.80;99.90;;;;;;5026944;28;20479;-74
2022/08/01 02:52:49;;;;;;;6.40;5.68;;;17.70;99.90;;;;;;5021389;28;20064;-76
2022/08/01 02:55:17;;;;;;;5.90;5.32;;;17.50;99.90;;;;;;5021326;28;20033;-75
2022/08/01 02:57:45;;;;;;;5.72;5.22;;;17.50;99.90;;;;;;5021498;28;20429;-75
2022/08/01 03:00:11;;;;;;;5.90;5.30;;;17.60;99.90;;;;;;5003429;28;20022;-75
2022/08/01 03:02:38;;;;;;;6.38;5.35;;;17.60;99.90;;;;;;5027116;28;20030;-75
2022/08/01 03:05:04;;;;;;;5.90;5.40;;;17.60;99.90;;;;;;5027956;28;20036;-73
2022/08/01 03:07:31;;;;;;;5.90;5.40;;;17.80;99.90;;;;;;5021699;28;20018;-73
2022/08/01 03:09:58;;;;;;;5.68;5.18;;;17.80;99.90;;;;;;5020738;28;20032;-74
2022/08/01 03:12:27;;;;;;;6.35;5.50;;;17.90;99.90;;;;;;5009176;28;20073;-73
2022/08/01 03:14:56;;;;;;;6.25;5.70;;;17.50;99.90;;;;;;5009732;28;20032;-74
2022/08/01 03:17:25;;;;;;;7.20;6.00;;;17.40;99.90;;;;;;5022891;28;20017;-75
2022/08/01 03:19:52;;;;;;;7.68;6.15;;;17.40;99.90;;;;;;5020793;28;20384;-75
2022/08/01 03:22:20;;;;;;;6.72;6.00;;;17.30;99.90;;;;;;5024880;28;20025;-74
2022/08/01 03:24:50;;;;;;;6.50;5.82;;;17.30;99.90;;;;;;5027426;28;20380;-77
2022/08/01 03:27:18;;;;;;;7.07;6.30;;;17.00;99.90;;;;;;5014214;28;20104;-77
2022/08/01 03:29:45;;;;;;;7.10;6.40;;;16.80;99.90;;;;;;5027239;28;20032;-77
2022/08/01 03:32:12;;;;;;;6.68;6.05;;;16.80;99.90;;;;;;5006364;28;20059;-76
2022/08/01 03:34:38;;;;;;;6.75;6.15;;;16.70;99.90;;;;;;5020683;28;20032;-76
2022/08/01 03:37:24;;;;;;;6.55;5.47;;;16.90;99.90;;;;;;5023919;28;20105;-76
2022/08/01 03:39:57;;;;;;;7.05;5.65;;;17.00;99.90;;;;;;5027226;28;20054;-77
2022/08/01 03:42:31;;;;;;;8.02;5.90;;;17.10;99.90;;;;;;5026911;28;20052;-75
2022/08/01 03:45:02;;;;;;;6.95;5.47;;;17.20;99.90;;;;;;5005669;28;20036;-74
2022/08/01 03:47:33;;;;;;;6.78;5.20;;;17.20;99.90;;;;;;5013387;28;20024;-75
2022/08/01 03:50:00;;;;;;;6.05;5.45;;;17.30;99.90;;;;;;5023312;28;20029;-76
2022/08/01 03:52:29;;;;;;;7.13;5.65;;;17.30;99.90;;;;;;5002533;28;20456;-74
2022/08/01 03:54:57;;;;;;;5.82;5.22;;;17.30;99.90;;;;;;5033459;28;20108;-73
2022/08/01 03:57:25;;;;;;;7.70;5.80;;;17.20;99.90;;;;;;5020553;28;20492;-76
2022/08/01 03:59:52;;;;;;;6.47;5.18;;;17.20;99.90;;;;;;5004729;28;20484;-76
2022/08/01 04:02:19;;;;;;;6.50;5.90;;;17.20;99.90;;;;;;5008911;28;20033;-75
2022/08/01 04:04:45;;;;;;;7.05;6.45;;;17.10;99.90;;;;;;5024730;28;20075;-77
2022/08/01 04:07:28;;;;;;;8.65;6.40;;;16.80;99.90;;;;;;5020065;28;20022;-77
2022/08/01 04:09:54;;;;;;;7.20;6.22;;;16.50;99.90;;;;;;5019993;28;20040;-76
2022/08/01 04:12:20;;;;;;;7.28;6.57;;;16.40;99.90;;;;;;5025863;28;20014;-76
2022/08/01 04:14:46;;;;;;;8.13;7.13;;;16.30;99.90;;;;;;5026609;28;20126;-76
2022/08/01 04:17:12;;;;;;;7.35;6.65;;;16.40;99.90;;;;;;5020408;28;20033;-75
2022/08/01 04:19:38;;;;;;;7.47;6.72;;;16.20;99.90;;;;;;5028298;28;20505;-75
2022/08/01 04:22:05;;;;;;;7.32;6.30;;;16.30;99.90;;;;;;5032807;28;20029;-76
2022/08/01 04:24:33;;;;;;;6.53;6.00;;;16.50;99.90;;;;;;5019889;28;20396;-77
2022/08/01 04:27:01;;;;;;;7.10;6.40;;;16.50;99.90;;;;;;5032865;28;20060;-77
2022/08/01 04:29:29;;;;;;;6.70;6.03;;;16.90;99.90;;;;;;5001535;28;20026;-77
2022/08/01 04:31:56;;;;;;;5.85;5.32;;;16.90;99.90;;;;;;5024687;28;20030;-77
2022/08/01 04:34:25;;;;;;;7.18;5.55;;;17.20;99.90;;;;;;5027478;28;20075;-77
2022/08/01 04:36:54;;;;;;;7.50;6.03;;;17.30;99.90;;;;;;5032671;28;20045;-77
2022/08/01 04:39:21;;;;;;;6.45;5.85;;;17.60;99.90;;;;;;5019118;28;20069;-77
2022/08/01 04:41:48;;;;;;;5.90;5.32;;;17.50;99.90;;;;;;5006259;28;20045;-77
2022/08/01 04:44:14;;;;;;;9.50;6.78;;;17.70;99.90;;;;;;5025774;28;20028;-76
2022/08/01 04:46:40;;;;;;;7.72;6.95;;;17.60;99.90;;;;;;5022294;28;20025;-77
2022/08/01 04:49:11;;;;;;;6.90;6.05;;;17.20;99.90;;;;;;5032250;28;20032;-77
2022/08/01 04:51:49;;;;;;;6.25;5.25;;;17.30;99.90;;;;;;5022911;28;20061;-77
2022/08/01 04:54:14;;;;;;;7.43;5.45;;;17.80;99.90;;;;;;5008159;28;20060;-77
2022/08/01 04:56:41;;;;;;;6.97;5.45;;;18.00;99.90;;;;;;5023345;28;20064;-77
2022/08/01 05:01:51;;;;;;;6.50;5.78;;;18.10;99.90;;;;;;5018611;28;20040;-78
2022/08/01 05:04:16;;;;;;;8.10;6.28;;;18.30;99.90;;;;;;5019374;28;20104;-78
2022/08/01 05:06:42;;;;;;;8.60;6.15;;;17.80;99.90;;;;;;5001323;28;20026;-77
2022/08/01 05:09:07;;;;;;;5.95;5.45;;;18.00;99.90;;;;;;5007392;28;20133;-76
2022/08/01 05:11:33;;;;;;;6.90;6.25;;;18.00;99.90;;;;;;5007543;28;20042;-76
2022/08/01 05:13:58;;;;;;;7.55;6.70;;;17.80;99.90;;;;;;5019011;28;20083;-73
2022/08/01 05:16:24;;;;;;;6.43;5.93;;;17.60;99.90;;;;;;5031959;28;20027;-71
2022/08/01 05:18:49;;;;;;;6.45;5.85;;;17.70;99.90;;;;;;5018919;28;20072;-76
2022/08/01 05:21:15;;;;;;;6.85;5.88;;;17.70;99.90;;;;;;5000705;28;20146;-77
2022/08/01 05:23:40;;;;;;;8.15;5.88;;;17.80;99.90;;;;;;5007807;28;20034;-77
2022/08/01 05:26:06;;;;;;;9.00;6.00;;;18.00;99.90;;;;;;5025059;28;20467;-77
2022/08/01 05:28:32;;;;;;;6.72;6.03;;;18.10;99.90;;;;;;5018511;28;20030;-77
2022/08/01 05:30:57;;;;;;;9.18;6.00;;;18.20;99.90;;;;;;5001036;28;20018;-77
2022/08/01 05:33:23;;;;;;;7.03;6.32;;;18.20;99.90;;;;;;5025433;28;20112;-78
2022/08/01 05:35:48;;;;;;;7.20;5.80;;;18.30;99.90;;;;;;5025357;28;20472;-77
2022/08/01 05:38:14;;;;;;;6.72;6.00;;;18.30;99.90;;;;;;5025306;28;20415;-77
2022/08/01 05:40:39;;;;;;;6.85;6.15;;;18.40;99.90;;;;;;5007072;28;20075;-77
2022/08/01 05:43:05;;;;;;;6.97;6.00;;;18.50;99.90;;;;;;5018340;28;20025;-77
2022/08/01 05:45:31;;;;;;;7.22;6.63;;;18.50;99.90;;;;;;5018841;28;20108;-76
2022/08/01 05:47:56;;;;;;;9.18;6.10;;;18.60;99.90;;;;;;5009867;28;20514;-75
2022/08/01 05:50:22;;;;;;;7.95;6.22;;;18.60;99.90;;;;;;5020666;28;20033;-76
2022/08/01 05:52:47;;;;;;;7.60;6.43;;;18.50;99.90;;;;;;5026066;28;20030;-75
2022/08/01 05:55:13;;;;;;;7.28;6.55;;;18.60;99.90;;;;;;5024638;28;20018;-76
2022/08/01 05:57:39;;;;;;;7.00;6.30;;;18.60;99.90;;;;;;5001077;28;20110;-77
2022/08/01 06:00:05;;;;;;;6.15;5.60;;;18.90;99.90;;;;;;5023983;28;20021;-75
2022/08/01 06:02:31;;;;;;;8.23;5.47;;;18.90;99.90;;;;;;5020655;28;20025;-77
2022/08/01 06:04:56;;;;;;;5.97;5.38;;;19.20;99.90;;;;;;5036933;28;20177;-77
2022/08/01 06:07:22;;;;;;;5.95;5.22;;;19.20;99.90;;;;;;5029466;28;20017;-77
2022/08/01 06:09:47;;;;;;;5.90;5.30;;;19.40;99.90;;;;;;5023681;28;20037;-77
2022/08/01 06:12:13;;;;;;;7.20;5.68;;;19.10;99.90;;;;;;5021643;28;20030;-77
2022/08/01 06:14:38;;;;;;;6.90;4.93;;;19.20;99.90;;;;;;5018062;28;20471;-76
2022/08/01 06:17:04;;;;;;;6.22;4.93;;;19.40;99.90;;;;;;5021975;28;20433;-77
2022/08/01 06:19:29;;;;;;;5.18;4.70;;;19.40;99.90;;;;;;5039755;28;20037;-77
2022/08/01 06:21:55;;;;;;;6.97;4.85;;;19.40;99.90;;;;;;4999531;28;20089;-77
2022/08/01 06:24:22;;;;;;;6.05;5.18;;;19.50;99.90;;;;;;5016147;28;20032;-76
2022/08/01 06:26:48;;;;;;;5.50;4.90;;;19.30;99.90;;;;;;5021320;28;20068;-77
2022/08/01 06:29:14;;;;;;;4.70;4.30;;;19.60;99.90;;;;;;5017862;28;20029;-77
2022/08/01 06:31:39;;;;;;;5.40;4.88;;;19.70;99.90;;;;;;5030909;28;20022;-77
2022/08/01 06:34:05;;;;;;;7.07;5.32;;;19.60;99.90;;;;;;4998822;28;20034;-76
2022/08/01 06:36:30;;;;;;;5.15;4.60;;;19.50;99.90;;;;;;5030097;28;20034;-77
2022/08/01 06:38:56;;;;;;;5.38;4.90;;;19.50;99.90;;;;;;5016463;28;20060;-77
2022/08/01 06:41:22;;;;;;;7.00;5.43;;;19.40;99.90;;;;;;5034112;28;20063;-76
2022/08/01 06:43:47;;;;;;;5.70;5.10;;;19.60;99.90;;;;;;5024535;28;20037;-75
2022/08/01 06:46:13;;;;;;;5.28;4.78;;;19.70;99.90;;;;;;5020951;28;20041;-77
2022/08/01 06:48:39;;;;;;;5.47;4.97;;;19.80;99.90;;;;;;5036135;28;20030;-77
2022/08/01 06:51:08;;;;;;;7.13;5.07;;;19.80;99.90;;;;;;5017090;28;20502;-77
2022/08/01 06:53:37;;;;;;;5.25;4.72;;;19.90;99.90;;;;;;5016086;28;20030;-77
2022/08/01 06:56:03;;;;;;;5.00;4.60;;;20.00;99.90;;;;;;5016080;28;20026;-77
2022/08/01 06:58:29;;;;;;;5.82;4.78;;;20.00;99.90;;;;;;5021503;28;20017;-76
2022/08/01 07:00:55;;;;;;;8.07;4.85;;;20.00;99.90;;;;;;5033083;28;20036;-77
2022/08/01 07:03:20;;;;;;;5.85;4.40;;;20.40;99.90;;;;;;5035787;28;20029;-77
2022/08/01 07:05:46;;;;;;;5.35;4.85;;;20.10;99.90;;;;;;5022240;28;20037;-76
2022/08/01 07:08:11;;;;;;;5.20;4.70;;;20.00;99.90;;;;;;5017727;28;20029;-77
2022/08/01 07:10:37;;;;;;;5.32;4.78;;;20.20;99.90;;;;;;5015999;28;20057;-77
2022/08/01 07:13:03;;;;;;;6.82;5.03;;;20.30;99.90;;;;;;5015552;28;20029;-77
2022/08/01 07:15:28;;;;;;;6.13;4.68;;;20.30;99.90;;;;;;5015187;28;20097;-76
2022/08/01 07:17:54;;;;;;;4.82;4.10;;;20.40;99.90;;;;;;5015351;28;20384;-77
2022/08/01 07:20:19;;;;;;;4.45;4.03;;;20.70;99.90;;;;;;5015147;28;20361;-77
2022/08/01 07:22:45;;;;;;;3.88;3.58;;;20.70;99.90;;;;;;5015308;28;20059;-77
2022/08/01 07:25:10;;;;;;;5.60;3.90;;;20.90;99.90;;;;;;5028733;28;20514;-76
2022/08/01 07:27:37;;;;;;;4.22;3.83;;;21.00;99.90;;;;;;5015877;28;20036;-77
2022/08/01 07:30:03;;;;;;;3.95;3.63;;;21.20;99.90;;;;;;4997919;28;20133;-75
2022/08/01 07:32:29;;;;;;;6.90;3.90;;;21.20;99.90;;;;;;4997887;28;20329;-77
2022/08/01 07:34:55;;;;;;;4.53;3.38;;;21.20;99.90;;;;;;5004653;28;20017;-76
2022/08/01 07:37:21;;;;;;;4.03;3.70;;;21.30;99.90;;;;;;5017352;28;20136;-76
2022/08/01 07:39:46;;;;;;;5.05;3.88;;;21.40;99.90;;;;;;5034549;28;20032;-76
2022/08/01 07:42:12;;;;;;;5.55;4.03;;;21.60;99.90;;;;;;5015860;28;20033;-75
2022/08/01 07:44:37;;;;;;;5.68;4.38;;;21.20;99.90;;;;;;5016063;28;20025;-75
2022/08/01 07:47:04;;;;;;;7.05;4.93;;;21.20;99.90;;;;;;5021994;28;20028;-75
2022/08/01 07:49:30;;;;;;;6.57;4.03;;;21.30;99.90;;;;;;5027100;28;20049;-75
2022/08/01 07:51:56;;;;;;;5.07;4.43;;;21.30;99.90;;;;;;5008195;28;20471;-75
2022/08/01 07:54:23;;;;;;;5.80;4.15;;;21.30;99.90;;;;;;5002625;28;20117;-75
2022/08/01 07:56:49;;;;;;;4.47;4.07;;;21.40;99.90;;;;;;5021639;28;20052;-75
2022/08/01 07:59:15;;;;;;;5.88;4.28;;;21.50;99.90;;;;;;5018857;28;20030;-74
2022/08/01 08:01:41;;;;;;;6.55;5.38;;;21.60;99.90;;;;;;5021790;28;20033;-75
2022/08/01 08:04:07;;;;;;;7.25;4.90;;;21.60;99.90;;;;;;5009328;28;20026;-75
2022/08/01 08:06:32;;;;;;;7.05;4.32;;;21.50;99.90;;;;;;5025416;28;20029;-75
2022/08/01 08:08:58;;;;;;;5.20;4.25;;;21.70;99.90;;;;;;5002296;28;20084;-74
2022/08/01 08:11:24;;;;;;;5.68;4.10;;;22.00;99.90;;;;;;5021380;28;20032;-74
2022/08/01 08:13:49;;;;;;;6.75;4.00;;;22.30;99.90;;;;;;5026500;28;20467;-74
2022/08/01 08:16:15;;;;;;;5.40;4.20;;;22.30;99.90;;;;;;5025129;28;20026;-74
2022/08/01 08:18:40;;;;;;;5.50;4.10;;;22.10;99.90;;;;;;5019771;28;20022;-74
2022/08/01 08:21:06;;;;;;;6.82;4.07;;;22.40;99.90;;;;;;5020131;28;20118;-75
2022/08/01 08:26:15;;;;;;;3.88;3.47;;;22.70;99.90;;;;;;5026601;28;20076;-74
2022/08/01 08:28:41;;;;;;;4.50;3.78;;;22.80;99.90;;;;;;5020176;28;20060;-74
2022/08/01 08:31:08;;;;;;;4.45;3.58;;;22.90;99.90;;;;;;5018843;28;20029;-75
2022/08/01 08:33:33;;;;;;;4.55;3.92;;;22.80;99.90;;;;;;5019954;28;20545;-74
2022/08/01 08:35:59;;;;;;;4.43;4.03;;;22.80;99.90;;;;;;5032577;28;20022;-74
2022/08/01 08:38:26;;;;;;;5.32;4.30;;;23.20;99.90;;;;;;5025098;28;20493;-74
2022/08/01 08:40:52;;;;;;;5.75;4.07;;;22.90;99.90;;;;;;5025778;28;20025;-74
2022/08/01 08:43:18;;;;;;;4.40;3.95;;;22.90;99.90;;;;;;5003125;28;20053;-74
2022/08/01 08:45:45;;;;;;;5.35;4.00;;;23.00;99.90;;;;;;5031246;28;20052;-74
2022/08/01 08:48:13;;;;;;;6.00;4.00;;;23.00;99.90;;;;;;5020390;28;20025;-74
2022/08/01 08:50:41;;;;;;;4.57;3.80;;;22.80;99.90;;;;;;5001000;28;20033;-75
2022/08/01 08:53:09;;;;;;;4.53;4.00;;;22.70;99.90;;;;;;5024294;28;20033;-74
2022/08/01 08:55:35;;;;;;;7.57;3.70;;;22.70;99.90;;;;;;5025674;28;20060;-74
2022/08/01 08:58:05;;;;;;;4.63;4.07;;;22.90;99.90;;;;;;5020993;28;20060;-75
2022/08/01 09:00:31;;;;;;;5.07;4.03;;;22.70;99.90;;;;;;5001168;28;20040;-74
2022/08/01 09:02:57;;;;;;;4.88;3.60;;;22.70;99.90;;;;;;5022911;28;20030;-75
2022/08/01 09:05:25;;;;;;;4.80;3.40;;;23.20;99.90;;;;;;5025605;28;20496;-75
2022/08/01 09:07:52;;;;;;;3.90;3.38;;;23.70;99.90;;;;;;5025357;28;20491;-75
2022/08/01 09:10:18;;;;;;;5.50;3.95;;;23.80;99.90;;;;;;5019990;28;20053;-75
2022/08/01 09:13:12;;;;;;;4.10;3.50;;;23.60;99.90;;;;;;5024643;28;20057;-74
2022/08/01 09:15:58;;;;;;;5.20;3.38;;;23.60;99.90;;;;;;5001312;28;20025;-74
2022/08/01 09:18:32;;;;;;;3.60;3.30;;;23.50;99.90;;;;;;5001348;28;20029;-74
2022/08/01 09:21:11;;;;;;;3.53;3.15;;;24.30;99.90;;;;;;5021106;28;20087;-76
2022/08/01 09:23:39;;;;;;;3.70;3.10;;;24.30;99.90;;;;;;5007876;28;20110;-74
2022/08/01 09:26:06;;;;;;;3.13;2.90;;;23.70;99.90;;;;;;5026571;28;20083;-74
2022/08/01 09:28:32;;;;;;;3.53;2.78;;;23.40;99.90;;;;;;5020615;28;20025;-75
2022/08/01 09:30:59;;;;;;;3.65;2.97;;;23.30;99.90;;;;;;5020283;28;20045;-74
2022/08/01 09:33:25;;;;;;;3.30;3.00;;;23.10;99.90;;;;;;5011806;28;20033;-74
2022/08/01 09:35:57;;;;;;;3.40;3.10;;;23.10;99.90;;;;;;5027488;28;20022;-76
2022/08/01 09:38:27;;;;;;;3.38;2.80;;;22.70;99.90;;;;;;5022019;28;20144;-77
2022/08/01 09:40:57;;;;;;;2.95;2.75;;;22.90;99.90;;;;;;5028497;28;20024;-77
2022/08/01 09:43:25;;;;;;;3.95;3.08;;;23.30;99.90;;;;;;5038816;28;20026;-76
2022/08/01 09:45:51;;;;;;;3.72;3.38;;;23.50;99.90;;;;;;5013479;28;20030;-77
2022/08/01 09:48:18;;;;;;;3.47;2.92;;;24.10;99.90;;;;;;5033742;28;20029;-77
2022/08/01 09:50:45;;;;;;;6.80;3.17;;;23.90;99.90;;;;;;5016625;28;20069;-76
2022/08/01 09:53:12;;;;;;;3.35;2.90;;;23.60;99.90;;;;;;5003405;28;20022;-76
2022/08/01 09:55:39;;;;;;;3.65;3.17;;;23.40;99.90;;;;;;5020014;28;20017;-76
2022/08/01 09:58:05;;;;;;;3.78;3.10;;;23.40;99.90;;;;;;5022914;28;20022;-76
2022/08/01 10:00:32;;;;;;;4.63;2.95;;;23.30;99.90;;;;;;5027721;28;20026;-76
2022/08/01 10:02:58;;;;;;;3.75;3.08;;;23.20;99.90;;;;;;5036722;28;20048;-76
2022/08/01 10:05:32;;;;;;;4.30;3.10;;;23.30;99.90;;;;;;5036777;28;20026;-77
2022/08/01 10:08:03;;;;;;;3.55;3.25;;;23.30;99.90;;;;;;5044985;28;20079;-76
2022/08/01 10:10:30;;;;;;;6.13;3.28;;;23.40;99.90;;;;;;5027576;28;20100;-76
2022/08/01 10:12:58;;;;;;;4.03;3.03;;;23.40;99.90;;;;;;5024883;28;20021;-76
2022/08/01 10:15:25;;;;;;;3.50;3.20;;;23.50;99.90;;;;;;5042606;28;20060;-76
2022/08/01 10:17:56;;;;;;;3.50;3.20;;;23.60;99.90;;;;;;5031690;28;20021;-77
2022/08/01 10:20:28;;;;;;;6.53;3.20;;;23.70;99.90;;;;;;5041069;28;20013;-76
2022/08/01 10:22:55;;;;;;;3.47;2.92;;;23.60;99.90;;;;;;5029796;28;20539;-77
2022/08/01 10:25:21;;;;;;;5.05;3.30;;;23.70;99.90;;;;;;5019105;28;20025;-74
2022/08/01 10:27:54;;;;;;;3.60;3.30;;;23.70;99.90;;;;;;5033769;28;20063;-75
2022/08/01 10:30:21;;;;;;;3.88;3.50;;;23.70;99.90;;;;;;5013269;28;20013;-75
2022/08/01 10:32:47;;;;;;;4.50;3.45;;;23.90;99.90;;;;;;5027972;28;20028;-75
2022/08/01 10:35:16;;;;;;;4.03;3.42;;;23.90;99.90;;;;;;5042186;28;20025;-75
2022/08/01 10:37:43;;;;;;;3.58;3.05;;;24.30;99.90;;;;;;5041805;28;20015;-74
2022/08/01 10:40:14;;;;;;;4.50;3.42;;;24.20;99.90;;;;;;5015390;28;20025;-74
2022/08/01 10:42:43;;;;;;;4.35;3.28;;;24.00;99.90;;;;;;5035670;28;20042;-75
2022/08/01 10:45:11;;;;;;;3.85;3.45;;;24.30;99.90;;;;;;5005614;28;20140;-74
2022/08/01 10:47:53;;;;;;;3.35;2.70;;;24.30;99.90;;;;;;5039980;28;20028;-74
2022/08/01 10:50:39;;;;;;;3.50;3.20;;;24.00;99.90;;;;;;5035741;28;20025;-75
2022/08/01 10:53:12;;;;;;;5.60;3.25;;;24.40;99.90;;;;;;5042453;28;20096;-75
2022/08/01 10:55:51;;;;;;;3.20;2.90;;;24.90;99.90;;;;;;5025329;28;20707;-75
2022/08/01 10:58:41;;;;;;;3.50;3.20;;;24.90;99.90;;;;;;5037859;28;20032;-75
2022/08/01 11:01:13;;;;;;;6.35;3.28;;;25.10;99.90;;;;;;5015827;28;20515;-74
2022/08/01 11:03:38;;;;;;;3.42;3.10;;;24.90;99.90;;;;;;5035576;28;20082;-75
2022/08/01 11:06:04;;;;;;;2.63;2.38;;;24.50;99.90;;;;;;5016146;28;20026;-75
2022/08/01 11:08:33;;;;;;;3.92;2.70;;;24.60;99.90;;;;;;5024217;28;20060;-74
2022/08/01 11:11:02;;;;;;;2.92;2.63;;;24.90;99.90;;;;;;5042939;28;20029;-75
2022/08/01 11:14:12;;;;;;;2.72;2.13;;;25.20;99.90;;;;;;5028225;28;20033;-74
2022/08/01 11:16:40;;;;;;;2.40;2.20;;;25.30;99.90;;;;;;5001016;28;20026;-75
2022/08/01 11:19:08;;;;;;;2.53;2.30;;;25.10;99.90;;;;;;5005868;28;20032;-74
2022/08/01 11:21:52;;;;;;;2.72;2.10;;;25.00;99.90;;;;;;5020634;28;20387;-75
2022/08/01 11:24:45;;;;;;;2.03;1.92;;;25.30;99.90;;;;;;5004406;28;20029;-75
2022/08/01 11:27:21;;;;;;;2.05;1.92;;;25.40;99.90;;;;;;5014211;28;20083;-74
2022/08/01 11:30:09;;;;;;;2.45;2.25;;;25.30;99.90;;;;;;5017710;28;20025;-74
2022/08/01 11:32:52;;;;;;;3.10;2.20;;;25.20;99.90;;;;;;5020504;28;20536;-73
2022/08/01 11:35:20;;;;;;;2.80;2.60;;;25.40;99.90;;;;;;5022866;28;20112;-74
2022/08/01 11:37:47;;;;;;;2.85;2.55;;;24.70;99.90;;;;;;5033468;28;20128;-74
2022/08/01 11:40:24;;;;;;;4.07;2.97;;;24.70;99.90;;;;;;5024479;28;20018;-74
2022/08/01 11:43:11;;;;;;;3.20;2.90;;;25.00;99.90;;;;;;5030797;28;20048;-74
2022/08/01 11:45:51;;;;;;;3.35;2.95;;;25.30;99.90;;;;;;5002626;28;20026;-74
2022/08/01 11:48:24;;;;;;;3.28;2.50;;;25.40;99.90;;;;;;5004469;28;20026;-73
2022/08/01 11:50:52;;;;;;;2.95;2.75;;;25.50;99.90;;;;;;5019769;28;20045;-74
2022/08/01 11:53:19;;;;;;;4.45;2.85;;;25.50;99.90;;;;;;5023567;28;20403;-74
2022/08/01 11:55:54;;;;;;;4.40;2.90;;;25.50;99.90;;;;;;5025795;28;20049;-74
2022/08/01 11:58:25;;;;;;;4.32;2.95;;;26.30;99.90;;;;;;5024730;28;20033;-74
2022/08/01 12:00:55;;;;;;;2.83;2.60;;;26.90;99.90;;;;;;5019761;28;20029;-74
2022/08/01 12:03:27;;;;;;;2.53;2.30;;;27.30;99.90;;;;;;5033281;28;20076;-75
2022/08/01 12:05:53;;;;;;;2.30;2.03;;;27.70;99.90;;;;;;5013368;28;20052;-75
2022/08/01 12:08:26;;;;;;;2.72;2.50;;;27.30;99.90;;;;;;5026491;28;20030;-75
2022/08/01 12:10:52;;;;;;;4.30;2.60;;;27.40;99.90;;;;;;5020628;28;20063;-74
2022/08/01 12:13:18;;;;;;;2.67;2.47;;;27.20;99.90;;;;;;5032966;28;20056;-75
2022/08/01 12:15:45;;;;;;;2.85;2.55;;;26.70;99.90;;;;;;5033173;28;20017;-75
2022/08/01 12:18:10;;;;;;;2.70;2.15;;;26.70;99.90;;;;;;5019646;28;20029;-74
2022/08/01 12:20:39;;;;;;;2.55;2.20;;;26.70;99.90;;;;;;5025374;28;20025;-75
2022/08/01 12:23:07;;;;;;;3.08;2.58;;;27.10;99.90;;;;;;5026727;28;20079;-74
2022/08/01 12:25:34;;;;;;;2.70;2.50;;;26.80;99.90;;;;;;5021143;28;20549;-75
2022/08/01 12:28:04;;;;;;;3.10;2.25;;;26.90;99.90;;;;;;5019646;28;20388;-74
2022/08/01 12:30:34;;;;;;;2.60;2.40;;;26.10;99.90;;;;;;5014776;28;20022;-75
2022/08/01 12:33:01;;;;;;;2.40;2.20;;;26.90;99.90;;;;;;5019567;28;20022;-74
2022/08/01 12:35:28;;;;;;;2.40;2.20;;;26.00;99.90;;;;;;5032764;28;20025;-74
2022/08/01 12:38:29;;;;;;;2.38;2.17;;;25.70;99.90;;;;;;5029443;28;20026;-75
2022/08/01 12:40:55;;;;;;;2.60;2.40;;;25.20;99.90;;;;;;5005892;28;20030;-74
2022/08/01 12:43:24;;;;;;;2.90;2.53;;;25.30;99.90;;;;;;5020920;28;20384;-74
2022/08/01 12:45:52;;;;;;;2.65;2.45;;;25.30;99.90;;;;;;5001659;28;20018;-75
2022/08/01 12:48:19;;;;;;;3.08;2.33;;;25.30;99.90;;;;;;5033199;28;20029;-77
2022/08/01 12:50:49;;;;;;;3.72;2.42;;;25.30;99.90;;;;;;5033389;28;20029;-77
2022/08/01 12:53:18;;;;;;;2.75;2.30;;;25.50;99.90;;;;;;5006344;28;20030;-77
2022/08/01 12:55:53;;;;;;;3.53;2.50;;;25.30;99.90;;;;;;4995936;28;20455;-77
2022/08/01 12:58:19;;;;;;;2.85;2.55;;;25.50;99.90;;;;;;5013753;28;20032;-77
2022/08/01 13:00:47;;;;;;;3.40;2.63;;;25.40;99.90;;;;;;5013051;28;20064;-76